createdAt,value
2017-07-16T00:00:47.530Z,18.80
2017-07-16T00:03:21.236Z,18.80
2017-07-16T00:05:54.919Z,18.80
2017-07-16T00:08:29.258Z,18.80
2017-07-16T00:11:02.964Z,18.80
2017-07-16T00:13:36.967Z,18.80
2017-07-16T00:16:10.670Z,18.80
2017-07-16T00:18:44.167Z,18.80
2017-07-16T00:21:17.879Z,18.80
2017-07-16T00:23:51.564Z,18.80
2017-07-16T00:26:25.311Z,18.80
2017-07-16T00:28:59.078Z,18.80
2017-07-16T00:31:32.589Z,18.80
2017-07-16T00:34:07.099Z,18.80
2017-07-16T00:36:40.703Z,18.80
2017-07-16T00:39:15.123Z,18.80
2017-07-16T00:41:48.823Z,18.70
2017-07-16T00:44:22.529Z,18.70
2017-07-16T00:46:56.949Z,18.80
2017-07-16T00:49:30.747Z,18.80
2017-07-16T00:52:04.759Z,18.80
2017-07-16T00:54:39.179Z,18.70
2017-07-16T00:57:12.786Z,18.70
2017-07-16T00:59:47.303Z,18.70
2017-07-16T01:02:20.862Z,18.70
2017-07-16T01:04:55.556Z,18.70
2017-07-16T01:07:29.431Z,18.70
2017-07-16T01:10:03.135Z,18.80
2017-07-16T01:12:36.938Z,18.80
2017-07-16T01:15:10.646Z,18.70
2017-07-16T01:17:44.446Z,18.70
2017-07-16T01:20:18.155Z,18.80
2017-07-16T01:22:51.850Z,18.80
2017-07-16T01:25:25.347Z,18.70
2017-07-16T01:27:59.663Z,18.70
2017-07-16T01:30:33.221Z,18.70
2017-07-16T01:33:06.966Z,18.60
2017-07-16T01:35:40.430Z,18.70
2017-07-16T01:38:14.482Z,18.70
2017-07-16T01:40:48.182Z,18.70
2017-07-16T01:43:21.988Z,18.60
2017-07-16T01:45:56.782Z,18.70
2017-07-16T01:48:30.522Z,18.70
2017-07-16T01:51:05.047Z,18.60
2017-07-16T01:53:38.606Z,18.60
2017-07-16T01:56:12.711Z,18.60
2017-07-16T01:58:47.071Z,18.60
2017-07-16T02:01:20.566Z,18.60
2017-07-16T02:03:54.263Z,18.60
2017-07-16T02:06:27.872Z,18.60
2017-07-16T02:09:01.925Z,18.60
2017-07-16T02:11:35.679Z,18.60
2017-07-16T02:14:10.071Z,18.60
2017-07-16T02:16:43.708Z,18.60
2017-07-16T02:19:17.407Z,18.60
2017-07-16T02:21:50.999Z,18.60
2017-07-16T02:24:25.422Z,18.60
2017-07-16T02:26:59.030Z,18.60
2017-07-16T02:29:32.610Z,18.60
2017-07-16T02:32:06.326Z,18.60
2017-07-16T02:34:40.602Z,18.60
2017-07-16T02:37:14.825Z,18.60
2017-07-16T02:39:48.458Z,18.60
2017-07-16T02:42:22.098Z,18.60
2017-07-16T02:44:56.579Z,18.60
2017-07-16T02:47:30.131Z,18.60
2017-07-16T02:50:03.878Z,18.60
2017-07-16T02:52:38.153Z,18.60
2017-07-16T02:55:11.907Z,18.60
2017-07-16T02:57:45.607Z,18.60
2017-07-16T03:00:19.307Z,18.60
2017-07-16T03:02:53.488Z,18.60
2017-07-16T03:05:27.107Z,18.60
2017-07-16T03:08:01.537Z,18.60
2017-07-16T03:10:35.348Z,18.60
2017-07-16T03:13:09.150Z,18.60
2017-07-16T03:15:42.754Z,18.70
2017-07-16T03:18:17.166Z,18.60
2017-07-16T03:20:50.772Z,18.60
2017-07-16T03:23:24.379Z,18.60
2017-07-16T03:25:57.966Z,18.60
2017-07-16T03:28:31.779Z,18.60
2017-07-16T03:31:05.346Z,18.60
2017-07-16T03:33:38.947Z,18.50
2017-07-16T03:36:12.678Z,18.60
2017-07-16T03:38:46.630Z,18.50
2017-07-16T03:41:20.191Z,18.60
2017-07-16T03:43:53.791Z,18.60
2017-07-16T03:46:27.390Z,18.60
2017-07-16T03:49:01.085Z,18.60
2017-07-16T03:51:35.483Z,18.50
2017-07-16T03:54:09.105Z,18.50
2017-07-16T03:56:42.909Z,18.50
2017-07-16T03:59:16.618Z,18.50
2017-07-16T04:01:50.318Z,18.50
2017-07-16T04:04:23.919Z,18.50
2017-07-16T04:06:57.526Z,18.50
2017-07-16T04:09:31.127Z,18.50
2017-07-16T04:12:04.722Z,18.50
2017-07-16T04:14:38.427Z,18.50
2017-07-16T04:17:12.021Z,18.50
2017-07-16T04:19:45.622Z,18.50
2017-07-16T04:22:19.312Z,18.50
2017-07-16T04:24:52.927Z,18.50
2017-07-16T04:27:26.737Z,18.50
2017-07-16T04:30:00.434Z,18.50
2017-07-16T04:32:34.035Z,18.50
2017-07-16T04:35:08.558Z,18.50
2017-07-16T04:37:42.362Z,18.50
2017-07-16T04:40:15.964Z,18.50
2017-07-16T04:42:50.371Z,18.60
2017-07-16T04:45:23.980Z,18.60
2017-07-16T04:47:57.780Z,18.60
2017-07-16T04:50:31.373Z,18.60
2017-07-16T04:53:05.402Z,18.60
2017-07-16T04:55:39.106Z,18.60
2017-07-16T04:58:12.897Z,18.60
2017-07-16T05:00:46.502Z,18.60
2017-07-16T05:03:20.210Z,18.60
2017-07-16T05:05:53.794Z,18.60
2017-07-16T05:08:27.614Z,18.60
2017-07-16T05:11:01.281Z,18.60
2017-07-16T05:13:35.635Z,18.60
2017-07-16T05:16:09.212Z,18.60
2017-07-16T05:18:42.934Z,18.60
2017-07-16T05:21:16.430Z,18.60
2017-07-16T05:23:50.134Z,18.60
2017-07-16T05:26:24.154Z,18.60
2017-07-16T05:28:57.951Z,18.60
2017-07-16T05:31:31.547Z,18.60
2017-07-16T05:34:05.254Z,18.60
2017-07-16T05:36:38.754Z,18.70
2017-07-16T05:39:12.510Z,18.70
2017-07-16T05:41:47.081Z,18.70
2017-07-16T05:44:20.787Z,18.70
2017-07-16T05:46:54.382Z,18.70
2017-07-16T05:49:28.190Z,18.80
2017-07-16T05:52:01.798Z,18.70
2017-07-16T05:54:35.565Z,18.80
2017-07-16T05:57:09.504Z,18.80
2017-07-16T05:59:43.918Z,18.80
2017-07-16T06:02:17.519Z,18.80
2017-07-16T06:04:51.230Z,18.80
2017-07-16T06:07:24.935Z,18.80
2017-07-16T06:09:58.543Z,18.80
2017-07-16T06:12:32.332Z,18.80
2017-07-16T06:15:06.035Z,18.90
2017-07-16T06:17:39.770Z,18.90
2017-07-16T06:20:13.847Z,18.90
2017-07-16T06:22:47.549Z,18.90
2017-07-16T06:25:21.147Z,18.90
2017-07-16T06:27:54.648Z,18.80
2017-07-16T06:30:28.190Z,18.90
2017-07-16T06:33:02.142Z,18.90
2017-07-16T06:35:35.854Z,19.00
2017-07-16T06:38:09.654Z,19.00
2017-07-16T06:40:43.262Z,19.00
2017-07-16T06:43:17.982Z,19.00
2017-07-16T06:45:51.486Z,19.00
2017-07-16T06:48:25.396Z,19.10
2017-07-16T06:50:58.947Z,19.10
2017-07-16T06:53:32.699Z,19.20
2017-07-16T06:56:07.087Z,19.20
2017-07-16T06:58:40.714Z,19.20
2017-07-16T07:01:14.422Z,19.20
2017-07-16T07:03:47.942Z,19.20
2017-07-16T07:06:21.491Z,19.20
2017-07-16T07:08:55.322Z,19.20
2017-07-16T07:11:29.847Z,19.20
2017-07-16T07:14:03.589Z,19.20
2017-07-16T07:16:37.109Z,19.30
2017-07-16T07:19:11.619Z,19.30
2017-07-16T07:21:45.374Z,19.30
2017-07-16T07:24:19.014Z,19.30
2017-07-16T07:26:52.651Z,19.30
2017-07-16T07:29:26.274Z,19.30
2017-07-16T07:32:00.767Z,19.30
2017-07-16T07:34:34.505Z,19.30
2017-07-16T07:37:08.104Z,19.30
2017-07-16T07:39:41.706Z,19.30
2017-07-16T07:42:15.310Z,19.30
2017-07-16T07:44:48.765Z,19.40
2017-07-16T07:47:22.399Z,19.40
2017-07-16T07:49:56.003Z,19.40
2017-07-16T07:52:29.703Z,19.50
2017-07-16T07:55:03.590Z,19.50
2017-07-16T07:57:37.241Z,19.60
2017-07-16T08:00:11.124Z,19.60
2017-07-16T08:02:44.790Z,19.60
2017-07-16T08:05:18.405Z,19.60
2017-07-16T08:07:51.947Z,19.60
2017-07-16T08:10:26.435Z,19.60
2017-07-16T08:13:00.137Z,19.60
2017-07-16T08:15:33.733Z,19.70
2017-07-16T08:18:08.163Z,19.70
2017-07-16T08:20:42.664Z,19.70
2017-07-16T08:23:16.491Z,19.70
2017-07-16T08:25:50.043Z,19.70
2017-07-16T08:28:23.796Z,19.70
2017-07-16T08:30:57.487Z,19.70
2017-07-16T08:33:31.058Z,19.80
2017-07-16T08:36:05.203Z,19.80
2017-07-16T08:38:39.010Z,19.80
2017-07-16T08:41:13.390Z,19.80
2017-07-16T08:43:47.847Z,19.80
2017-07-16T08:46:21.859Z,19.80
2017-07-16T08:48:55.433Z,19.90
2017-07-16T08:51:29.166Z,19.90
2017-07-16T08:54:02.788Z,19.90
2017-07-16T08:56:36.465Z,19.90
2017-07-16T08:59:10.066Z,19.90
2017-07-16T09:01:44.443Z,20.00
2017-07-16T09:04:18.184Z,19.90
2017-07-16T09:06:51.885Z,20.00
2017-07-16T09:09:26.306Z,20.00
2017-07-16T09:12:00.831Z,20.00
2017-07-16T09:14:34.533Z,20.00
2017-07-16T09:17:08.239Z,20.00
2017-07-16T09:19:41.730Z,20.00
2017-07-16T09:22:16.063Z,20.10
2017-07-16T09:24:49.888Z,20.10
2017-07-16T09:27:23.569Z,20.00
2017-07-16T09:29:57.254Z,20.10
2017-07-16T09:32:30.810Z,20.10
2017-07-16T09:35:04.450Z,20.10
2017-07-16T09:37:38.857Z,20.10
2017-07-16T09:40:12.555Z,20.10
2017-07-16T09:42:46.270Z,20.10
2017-07-16T09:45:19.886Z,20.10
2017-07-16T09:47:53.540Z,20.10
2017-07-16T09:50:27.168Z,20.10
2017-07-16T09:53:00.742Z,20.10
2017-07-16T09:55:34.386Z,20.10
2017-07-16T09:58:08.674Z,20.20
2017-07-16T10:00:42.414Z,20.10
2017-07-16T10:03:15.998Z,20.10
2017-07-16T10:05:49.699Z,20.20
2017-07-16T10:08:23.899Z,20.20
2017-07-16T10:10:57.494Z,20.20
2017-07-16T10:13:31.122Z,20.20
2017-07-16T10:16:04.821Z,20.30
2017-07-16T10:18:38.430Z,20.30
2017-07-16T10:21:12.031Z,20.30
2017-07-16T10:23:45.553Z,20.30
2017-07-16T10:26:20.045Z,20.30
2017-07-16T10:28:53.518Z,20.30
2017-07-16T10:31:27.217Z,20.30
2017-07-16T10:34:00.846Z,20.30
2017-07-16T10:36:34.551Z,20.30
2017-07-16T10:39:08.815Z,20.40
2017-07-16T10:41:43.235Z,20.40
2017-07-16T10:44:17.098Z,20.40
2017-07-16T10:46:50.642Z,20.50
2017-07-16T10:49:24.297Z,20.40
2017-07-16T10:51:57.887Z,20.50
2017-07-16T10:54:31.964Z,20.50
2017-07-16T10:57:06.415Z,20.50
2017-07-16T10:59:40.234Z,20.50
2017-07-16T11:02:14.551Z,20.50
2017-07-16T11:04:48.122Z,20.50
2017-07-16T11:07:21.748Z,20.50
2017-07-16T11:09:56.339Z,20.50
2017-07-16T11:12:31.922Z,20.40
2017-07-16T11:15:05.494Z,20.50
2017-07-16T11:17:39.834Z,20.50
2017-07-16T11:20:14.270Z,20.50
2017-07-16T11:22:48.022Z,20.50
2017-07-16T11:25:22.475Z,20.50
2017-07-16T11:27:56.074Z,20.40
2017-07-16T11:30:29.675Z,20.40
2017-07-16T11:33:03.274Z,20.50
2017-07-16T11:35:36.877Z,20.40
2017-07-16T11:38:10.680Z,20.50
2017-07-16T11:40:44.237Z,20.50
2017-07-16T11:43:18.061Z,20.40
2017-07-16T11:45:51.694Z,20.50
2017-07-16T11:48:26.052Z,20.50
2017-07-16T11:50:59.711Z,20.50
2017-07-16T11:53:33.306Z,20.50
2017-07-16T11:56:10.029Z,20.50
2017-07-16T11:58:43.787Z,20.60
2017-07-16T12:01:18.254Z,20.70
2017-07-16T12:03:51.994Z,20.70
2017-07-16T12:06:25.507Z,20.80
2017-07-16T12:08:59.102Z,20.80
2017-07-16T12:11:32.702Z,20.70
2017-07-16T12:14:06.274Z,20.70
2017-07-16T12:16:40.150Z,20.70
2017-07-16T12:19:13.711Z,20.60
2017-07-16T12:21:47.310Z,20.60
2017-07-16T12:24:20.899Z,20.60
2017-07-16T12:26:54.926Z,20.60
2017-07-16T12:29:28.528Z,20.60
2017-07-16T12:32:02.742Z,20.60
2017-07-16T12:34:36.346Z,20.60
2017-07-16T12:37:10.678Z,20.70
2017-07-16T12:39:44.463Z,20.70
2017-07-16T12:42:18.166Z,20.60
2017-07-16T12:44:52.089Z,20.70
2017-07-16T12:47:27.266Z,20.70
2017-07-16T12:50:01.010Z,20.70
2017-07-16T12:52:34.718Z,20.70
2017-07-16T12:55:09.412Z,20.70
2017-07-16T12:57:43.883Z,20.70
2017-07-16T13:00:17.446Z,20.80
2017-07-16T13:02:51.030Z,20.70
2017-07-16T13:05:24.660Z,20.70
2017-07-16T13:07:58.263Z,20.70
2017-07-16T13:10:32.052Z,20.70
2017-07-16T13:13:05.602Z,20.70
2017-07-16T13:15:39.292Z,20.80
2017-07-16T13:18:12.896Z,20.80
2017-07-16T13:20:46.539Z,20.80
2017-07-16T13:23:20.193Z,20.80
2017-07-16T13:25:53.754Z,20.70
2017-07-16T13:28:27.387Z,20.70
2017-07-16T13:31:00.967Z,20.70
2017-07-16T13:33:34.574Z,20.80
2017-07-16T13:36:08.262Z,20.70
2017-07-16T13:38:41.734Z,20.80
2017-07-16T13:41:15.366Z,20.70
2017-07-16T13:43:48.874Z,20.80
2017-07-16T13:46:22.405Z,20.80
2017-07-16T13:48:55.867Z,20.80
2017-07-16T13:51:29.422Z,20.80
2017-07-16T13:54:03.022Z,20.80
2017-07-16T13:56:36.586Z,20.70
2017-07-16T13:59:10.131Z,20.70
2017-07-16T14:01:43.695Z,20.80
2017-07-16T14:04:17.171Z,20.70
2017-07-16T14:06:50.755Z,20.80
2017-07-16T14:09:24.318Z,20.80
2017-07-16T14:11:57.883Z,20.80
2017-07-16T14:14:31.429Z,20.80
2017-07-16T14:17:05.154Z,20.80
2017-07-16T14:19:38.602Z,20.80
2017-07-16T14:22:12.094Z,20.80
2017-07-16T14:24:45.619Z,20.80
2017-07-16T14:27:19.178Z,20.80
2017-07-16T14:29:52.719Z,20.80
2017-07-16T14:32:26.288Z,20.80
2017-07-16T14:34:59.887Z,20.80
2017-07-16T14:37:33.451Z,20.80
2017-07-16T14:40:06.915Z,20.80
2017-07-16T14:42:40.470Z,20.80
2017-07-16T14:45:13.995Z,20.80
2017-07-16T14:47:47.548Z,20.80
2017-07-16T14:50:21.071Z,20.80
2017-07-16T14:52:54.666Z,20.80
2017-07-16T14:55:28.286Z,20.80
2017-07-16T14:58:01.978Z,20.80
2017-07-16T15:00:35.445Z,20.80
2017-07-16T15:03:08.990Z,20.80
2017-07-16T15:05:42.628Z,20.80
2017-07-16T15:08:16.262Z,20.80
2017-07-16T15:10:49.731Z,20.80
2017-07-16T15:13:23.291Z,20.80
2017-07-16T15:15:56.762Z,20.80
2017-07-16T15:18:30.459Z,20.80
2017-07-16T15:21:03.922Z,20.80
2017-07-16T15:23:37.591Z,20.80
2017-07-16T15:26:11.171Z,20.80
2017-07-16T15:28:44.751Z,20.80
2017-07-16T15:31:18.287Z,20.80
2017-07-16T15:33:51.760Z,20.80
2017-07-16T15:36:25.369Z,20.80
2017-07-16T15:38:59.050Z,20.70
2017-07-16T15:41:32.531Z,20.70
2017-07-16T15:44:06.031Z,20.70
2017-07-16T15:46:39.606Z,20.80
2017-07-16T15:49:13.291Z,20.80
2017-07-16T15:51:46.855Z,20.80
2017-07-16T15:54:20.503Z,20.80
2017-07-16T15:56:54.118Z,20.80
2017-07-16T15:59:27.594Z,20.80
2017-07-16T16:02:01.047Z,20.80
2017-07-16T16:04:34.618Z,20.80
2017-07-16T16:07:08.103Z,20.80
2017-07-16T16:09:41.740Z,20.80
2017-07-16T16:12:15.271Z,20.80
2017-07-16T16:14:48.742Z,20.80
2017-07-16T16:17:22.269Z,20.80
2017-07-16T16:19:55.911Z,20.80
2017-07-16T16:22:29.382Z,20.80
2017-07-16T16:25:02.882Z,20.80
2017-07-16T16:27:36.367Z,20.80
2017-07-16T16:30:09.915Z,20.80
2017-07-16T16:32:43.450Z,20.80
2017-07-16T16:35:17.168Z,20.80
2017-07-16T16:37:50.654Z,20.80
2017-07-16T16:40:24.327Z,20.80
2017-07-16T16:42:57.942Z,20.80
2017-07-16T16:45:31.528Z,20.70
2017-07-16T16:48:05.002Z,20.80
2017-07-16T16:50:38.591Z,20.80
2017-07-16T16:53:12.255Z,20.80
2017-07-16T16:55:45.768Z,20.70
2017-07-16T16:58:19.383Z,20.80
2017-07-16T17:00:52.942Z,20.80
2017-07-16T17:03:26.467Z,20.70
2017-07-16T17:06:00.162Z,20.80
2017-07-16T17:08:33.774Z,20.70
2017-07-16T17:11:07.273Z,20.70
2017-07-16T17:13:40.903Z,20.70
2017-07-16T17:16:14.464Z,20.70
2017-07-16T17:18:47.964Z,20.70
2017-07-16T17:21:21.529Z,20.80
2017-07-16T17:23:54.987Z,20.80
2017-07-16T17:26:28.671Z,20.70
2017-07-16T17:29:02.275Z,20.70
2017-07-16T17:31:35.963Z,20.70
2017-07-16T17:34:09.578Z,20.70
2017-07-16T17:36:43.156Z,20.70
2017-07-16T17:39:16.619Z,20.70
2017-07-16T17:41:50.289Z,20.70
2017-07-16T17:44:23.743Z,20.70
2017-07-16T17:46:57.307Z,20.70
2017-07-16T17:49:30.847Z,20.70
2017-07-16T17:52:04.440Z,20.70
2017-07-16T17:54:38.238Z,20.70
2017-07-16T17:57:11.902Z,20.70
2017-07-16T17:59:45.366Z,20.70
2017-07-16T18:02:18.918Z,20.70
2017-07-16T18:04:52.399Z,20.70
2017-07-16T18:07:25.971Z,20.70
2017-07-16T18:09:59.430Z,20.70
2017-07-16T18:12:33.077Z,20.70
2017-07-16T18:15:06.688Z,20.70
2017-07-16T18:17:40.376Z,20.70
2017-07-16T18:20:13.843Z,20.70
2017-07-16T18:22:47.402Z,20.70
2017-07-16T18:25:20.984Z,20.70
2017-07-16T18:27:54.569Z,20.70
2017-07-16T18:30:28.035Z,20.70
2017-07-16T18:33:01.706Z,20.70
2017-07-16T18:35:35.168Z,20.70
2017-07-16T18:38:08.714Z,20.70
2017-07-16T18:40:42.319Z,20.70
2017-07-16T18:43:15.872Z,20.70
2017-07-16T18:45:49.329Z,20.70
2017-07-16T18:48:22.885Z,20.70
2017-07-16T18:50:56.333Z,20.70
2017-07-16T18:53:29.886Z,20.70
2017-07-16T18:56:03.350Z,20.70
2017-07-16T18:58:36.813Z,20.70
2017-07-16T19:01:10.279Z,20.70
2017-07-16T19:03:43.830Z,20.70
2017-07-16T19:06:17.361Z,20.70
2017-07-16T19:08:50.909Z,20.70
2017-07-16T19:11:24.535Z,20.70
2017-07-16T19:13:58.190Z,20.70
2017-07-16T19:16:31.793Z,20.70
2017-07-16T19:19:05.342Z,20.70
2017-07-16T19:21:38.802Z,20.60
2017-07-16T19:24:12.472Z,20.60
2017-07-16T19:26:46.883Z,20.60
2017-07-16T19:29:20.576Z,20.60
2017-07-16T19:31:54.302Z,20.70
2017-07-16T19:34:27.897Z,20.70
2017-07-16T19:37:01.487Z,20.70
2017-07-16T19:39:35.091Z,20.60
2017-07-16T19:42:08.798Z,20.60
2017-07-16T19:44:42.554Z,20.70
2017-07-16T19:47:16.346Z,20.60
2017-07-16T19:49:49.875Z,20.60
2017-07-16T19:52:23.614Z,20.60
2017-07-16T19:54:57.315Z,20.60
2017-07-16T19:57:31.281Z,20.60
2017-07-16T20:00:05.050Z,20.60
2017-07-16T20:02:39.727Z,20.60
2017-07-16T20:05:13.558Z,20.60
2017-07-16T20:07:47.250Z,20.60
2017-07-16T20:10:20.954Z,20.60
2017-07-16T20:12:54.430Z,20.60
2017-07-16T20:15:27.983Z,20.60
2017-07-16T20:18:01.559Z,20.60
2017-07-16T20:20:35.231Z,20.60
2017-07-16T20:23:08.691Z,20.50
2017-07-16T20:25:42.238Z,20.60
2017-07-16T20:28:15.777Z,20.50
2017-07-16T20:30:49.463Z,20.50
2017-07-16T20:33:22.926Z,20.50
2017-07-16T20:35:56.490Z,20.50
2017-07-16T20:38:29.955Z,20.50
2017-07-16T20:41:03.518Z,20.50
2017-07-16T20:43:37.038Z,20.50
2017-07-16T20:46:10.605Z,20.50
2017-07-16T20:48:44.071Z,20.50
2017-07-16T20:51:17.623Z,20.50
2017-07-16T20:53:51.255Z,20.50
2017-07-16T20:56:24.959Z,20.50
2017-07-16T20:58:58.439Z,20.50
2017-07-16T21:01:32.027Z,20.50
2017-07-16T21:04:05.538Z,20.50
2017-07-16T21:06:39.238Z,20.50
2017-07-16T21:09:13.163Z,20.50
2017-07-16T21:11:46.954Z,20.50
2017-07-16T21:14:20.547Z,20.50
2017-07-16T21:16:54.330Z,20.40
2017-07-16T21:19:28.054Z,20.50
2017-07-16T21:22:01.590Z,20.50
2017-07-16T21:24:35.978Z,20.40
2017-07-16T21:27:09.674Z,20.40
2017-07-16T21:29:44.858Z,20.40
2017-07-16T21:32:19.138Z,20.40
2017-07-16T21:34:52.858Z,20.40
2017-07-16T21:37:27.458Z,20.40
2017-07-16T21:40:01.264Z,20.40
2017-07-16T21:42:34.867Z,20.40
2017-07-16T21:45:08.468Z,20.40
2017-07-16T21:47:43.081Z,20.40
2017-07-16T21:50:16.686Z,20.30
2017-07-16T21:52:50.286Z,20.40
2017-07-16T21:55:23.895Z,20.40
2017-07-16T21:57:57.589Z,20.30
2017-07-16T22:00:31.295Z,20.30
2017-07-16T22:03:04.849Z,20.30
2017-07-16T22:05:39.369Z,20.30
2017-07-16T22:08:12.882Z,20.30
2017-07-16T22:10:47.230Z,20.30
2017-07-16T22:13:20.937Z,20.30
2017-07-16T22:15:54.535Z,20.20
2017-07-16T22:18:28.130Z,20.20
2017-07-16T22:21:02.250Z,20.20
2017-07-16T22:23:35.841Z,20.20
2017-07-16T22:26:10.270Z,20.20
2017-07-16T22:28:43.956Z,20.20
2017-07-16T22:31:17.675Z,20.20
2017-07-16T22:33:52.091Z,20.20
2017-07-16T22:36:26.714Z,20.20
2017-07-16T22:39:01.227Z,20.20
2017-07-16T22:41:35.043Z,20.20
2017-07-16T22:44:09.358Z,20.20
2017-07-16T22:46:42.956Z,20.20
2017-07-16T22:49:16.663Z,20.20
2017-07-16T22:51:50.368Z,20.20
2017-07-16T22:54:24.070Z,20.20
2017-07-16T22:56:57.651Z,20.20
2017-07-16T22:59:31.229Z,20.20
2017-07-16T23:02:05.074Z,20.20
2017-07-16T23:04:39.485Z,20.20
2017-07-16T23:07:14.014Z,20.20
2017-07-16T23:09:47.718Z,20.20
2017-07-16T23:12:21.726Z,20.20
2017-07-16T23:14:55.435Z,20.20
2017-07-16T23:17:29.135Z,20.20
2017-07-16T23:20:02.735Z,20.20
2017-07-16T23:22:36.450Z,20.20
2017-07-16T23:25:10.110Z,20.20
2017-07-16T23:27:43.699Z,20.20
2017-07-16T23:30:17.452Z,20.20
2017-07-16T23:32:51.246Z,20.20
2017-07-16T23:35:25.642Z,20.20
2017-07-16T23:37:59.366Z,20.20
2017-07-16T23:40:33.466Z,20.20
2017-07-16T23:43:07.907Z,20.20
2017-07-16T23:45:41.599Z,20.20
2017-07-16T23:48:15.292Z,20.20
2017-07-16T23:50:49.210Z,20.20
2017-07-16T23:53:23.627Z,20.20
2017-07-16T23:55:57.347Z,20.20
2017-07-16T23:58:30.935Z,20.20
